createdAt,value
2022-08-25T00:02:12.221Z,82.74
2022-08-25T00:04:38.823Z,83.34
2022-08-25T00:07:07.142Z,82.46
2022-08-25T00:09:34.990Z,82.80
2022-08-25T00:12:03.290Z,83.13
2022-08-25T00:14:34.070Z,82.86
2022-08-25T00:17:01.035Z,82.43
2022-08-25T00:19:32.159Z,81.96
2022-08-25T00:22:00.183Z,82.22
2022-08-25T00:24:26.789Z,81.82
2022-08-25T00:26:56.703Z,82.07
2022-08-25T00:29:27.950Z,80.95
2022-08-25T00:31:55.715Z,80.38
2022-08-25T00:34:26.526Z,80.58
2022-08-25T00:36:53.361Z,81.57
2022-08-25T00:39:21.728Z,81.67
2022-08-25T00:41:50.298Z,81.91
2022-08-25T00:44:18.821Z,81.88
2022-08-25T00:46:57.641Z,82.39
2022-08-25T00:49:37.329Z,83.08
2022-08-25T00:52:27.685Z,83.26
2022-08-25T00:55:09.026Z,82.96
2022-08-25T00:58:18.598Z,82.15
2022-08-25T01:00:49.536Z,82.80
2022-08-25T01:03:19.134Z,83.95
2022-08-25T01:05:46.751Z,84.11
2022-08-25T01:08:16.257Z,83.63
2022-08-25T01:10:44.570Z,83.31
2022-08-25T01:13:23.673Z,82.27
2022-08-25T01:15:54.491Z,82.81
2022-08-25T01:18:21.758Z,83.48
2022-08-25T01:20:50.600Z,83.99
2022-08-25T01:23:17.006Z,84.10
2022-08-25T01:25:51.548Z,83.95
2022-08-25T01:28:20.466Z,83.43
2022-08-25T01:30:47.729Z,83.45
2022-08-25T01:33:15.005Z,84.89
2022-08-25T01:35:41.477Z,84.53
2022-08-25T01:38:08.381Z,84.88
2022-08-25T01:40:37.381Z,84.40
2022-08-25T01:43:12.983Z,83.23
2022-08-25T01:45:42.874Z,84.25
2022-08-25T01:48:10.350Z,84.03
2022-08-25T01:50:38.115Z,86.34
2022-08-25T01:53:17.390Z,87.55
2022-08-25T01:55:55.217Z,88.25
2022-08-25T01:58:22.726Z,88.13
2022-08-25T02:00:51.173Z,87.20
2022-08-25T02:03:19.083Z,87.41
2022-08-25T02:05:48.002Z,86.48
2022-08-25T02:08:14.979Z,86.21
2022-08-25T02:10:41.563Z,86.79
2022-08-25T02:13:08.894Z,86.54
2022-08-25T02:15:35.678Z,85.83
2022-08-25T02:18:02.448Z,85.27
2022-08-25T02:20:28.887Z,85.14
2022-08-25T02:22:56.539Z,85.43
2022-08-25T02:25:23.649Z,85.74
2022-08-25T02:27:50.097Z,86.37
2022-08-25T02:30:17.720Z,85.20
2022-08-25T02:32:44.507Z,85.63
2022-08-25T02:35:11.564Z,85.81
2022-08-25T02:37:38.049Z,86.92
2022-08-25T02:40:05.451Z,86.24
2022-08-25T02:42:31.977Z,85.55
2022-08-25T02:44:58.386Z,85.87
2022-08-25T02:47:27.058Z,86.68
2022-08-25T02:49:53.871Z,87.24
2022-08-25T02:52:20.310Z,86.70
2022-08-25T02:54:46.787Z,86.29
2022-08-25T02:57:14.130Z,84.37
2022-08-25T02:59:41.368Z,83.07
2022-08-25T03:02:07.877Z,82.99
2022-08-25T03:04:34.599Z,83.42
2022-08-25T03:07:01.032Z,84.63
2022-08-25T03:09:27.479Z,84.56
2022-08-25T03:11:54.573Z,85.04
2022-08-25T03:14:20.989Z,84.74
2022-08-25T03:16:47.466Z,84.43
2022-08-25T03:19:13.891Z,84.62
2022-08-25T03:21:40.377Z,85.65
2022-08-25T03:24:07.330Z,86.02
2022-08-25T03:26:52.337Z,86.52
2022-08-25T03:29:18.809Z,85.21
2022-08-25T03:31:45.557Z,85.56
2022-08-25T03:34:13.939Z,85.78
2022-08-25T03:36:40.651Z,84.77
2022-08-25T03:39:08.405Z,84.11
2022-08-25T03:41:35.386Z,84.14
2022-08-25T03:44:04.097Z,83.76
2022-08-25T03:46:38.093Z,82.98
2022-08-25T03:49:06.927Z,82.38
2022-08-25T03:51:40.400Z,84.03
2022-08-25T03:54:07.674Z,84.56
2022-08-25T03:56:34.131Z,84.65
2022-08-25T03:59:00.624Z,85.05
2022-08-25T04:01:28.363Z,84.40
2022-08-25T04:03:55.243Z,84.86
2022-08-25T04:06:22.086Z,84.24
2022-08-25T04:08:48.815Z,83.71
2022-08-25T04:11:21.183Z,85.16
2022-08-25T04:13:48.474Z,84.26
2022-08-25T04:16:23.768Z,85.11
2022-08-25T04:18:52.097Z,86.73
2022-08-25T04:21:20.306Z,87.71
2022-08-25T04:23:48.889Z,87.35
2022-08-25T04:26:43.094Z,86.48
2022-08-25T04:29:10.734Z,85.20
2022-08-25T04:31:40.304Z,85.07
2022-08-25T04:34:23.145Z,84.98
2022-08-25T04:36:53.529Z,85.03
2022-08-25T04:39:21.263Z,86.15
2022-08-25T04:41:48.487Z,85.99
2022-08-25T04:44:15.281Z,86.40
2022-08-25T04:46:41.704Z,85.51
2022-08-25T04:49:08.773Z,85.27
2022-08-25T04:51:39.607Z,85.75
2022-08-25T04:54:10.478Z,86.78
2022-08-25T04:56:39.062Z,87.30
2022-08-25T04:59:10.463Z,87.72
2022-08-25T05:01:37.695Z,88.60
2022-08-25T05:04:06.772Z,87.73
2022-08-25T05:06:33.275Z,88.30
2022-08-25T05:09:01.128Z,88.75
2022-08-25T05:11:28.569Z,87.85
2022-08-25T05:13:56.586Z,87.66
2022-08-25T05:16:24.779Z,88.03
2022-08-25T05:18:52.413Z,88.23
2022-08-25T05:21:22.257Z,88.67
2022-08-25T05:23:49.780Z,89.04
2022-08-25T05:26:24.637Z,89.51
2022-08-25T05:28:54.072Z,89.12
2022-08-25T05:31:23.242Z,88.81
2022-08-25T05:33:51.103Z,89.14
2022-08-25T05:36:19.730Z,89.20
2022-08-25T05:38:46.585Z,89.44
2022-08-25T05:41:19.601Z,88.72
2022-08-25T05:43:48.743Z,88.33
2022-08-25T05:46:16.879Z,88.86
2022-08-25T05:48:43.549Z,88.04
2022-08-25T05:51:12.088Z,88.34
2022-08-25T05:53:41.603Z,88.81
2022-08-25T05:56:09.562Z,89.90
2022-08-25T05:58:37.600Z,89.77
2022-08-25T06:01:23.545Z,89.42
2022-08-25T06:03:54.328Z,89.92
2022-08-25T06:06:23.116Z,89.56
2022-08-25T06:08:49.640Z,89.55
2022-08-25T06:11:16.495Z,89.30
2022-08-25T06:13:43.296Z,89.02
2022-08-25T06:16:09.878Z,88.16
2022-08-25T06:18:36.309Z,87.74
2022-08-25T06:21:14.148Z,86.84
2022-08-25T06:23:41.237Z,87.06
2022-08-25T06:26:13.147Z,87.09
2022-08-25T06:28:48.161Z,86.28
2022-08-25T06:31:15.013Z,85.70
2022-08-25T06:33:41.530Z,85.70
2022-08-25T06:36:08.636Z,85.70
2022-08-25T06:38:35.190Z,84.23
2022-08-25T06:41:03.745Z,85.04
2022-08-25T06:43:30.164Z,84.04
2022-08-25T06:45:56.584Z,83.32
2022-08-25T06:48:23.948Z,83.58
2022-08-25T06:50:50.426Z,83.59
2022-08-25T06:53:16.869Z,84.36
2022-08-25T06:55:43.268Z,83.71
2022-08-25T06:58:11.113Z,82.69
2022-08-25T07:00:37.860Z,82.23
2022-08-25T07:03:04.982Z,80.69
2022-08-25T07:05:42.888Z,80.92
2022-08-25T07:08:11.910Z,80.89
2022-08-25T07:10:38.679Z,79.35
2022-08-25T07:13:05.073Z,79.11
2022-08-25T07:15:31.475Z,79.13
2022-08-25T07:17:58.078Z,78.86
2022-08-25T07:22:56.057Z,78.73
2022-08-25T07:25:23.918Z,78.66
2022-08-25T07:27:50.401Z,77.61
2022-08-25T07:30:18.162Z,77.07
2022-08-25T07:32:44.685Z,76.51
2022-08-25T07:35:19.524Z,74.44
2022-08-25T07:37:56.735Z,73.95
2022-08-25T07:40:27.873Z,73.73
2022-08-25T07:42:57.038Z,73.76
2022-08-25T07:45:30.467Z,73.42
2022-08-25T07:47:59.921Z,72.71
2022-08-25T07:50:27.537Z,72.69
2022-08-25T07:52:55.452Z,71.02
2022-08-25T07:55:24.286Z,71.37
2022-08-25T07:57:55.430Z,71.52
2022-08-25T08:00:24.381Z,70.58
2022-08-25T08:02:51.187Z,68.60
2022-08-25T08:05:17.638Z,68.94
2022-08-25T08:07:44.444Z,69.55
2022-08-25T08:13:00.647Z,68.12
2022-08-25T08:15:29.913Z,66.06
2022-08-25T08:17:57.995Z,66.38
2022-08-25T08:20:25.022Z,66.37
2022-08-25T08:22:51.541Z,66.44
2022-08-25T08:25:21.235Z,65.57
2022-08-25T08:27:48.784Z,64.27
2022-08-25T08:30:15.332Z,64.78
2022-08-25T08:33:06.246Z,62.94
2022-08-25T08:35:28.580Z,63.41
2022-08-25T08:37:54.983Z,63.01
2022-08-25T08:40:21.635Z,62.74
2022-08-25T08:43:07.093Z,63.07
2022-08-25T08:45:53.601Z,63.14
2022-08-25T08:48:52.500Z,63.76
2022-08-25T08:51:33.123Z,63.22
2022-08-25T08:54:18.671Z,62.06
2022-08-25T08:56:48.986Z,62.36
2022-08-25T08:59:21.677Z,60.73
2022-08-25T09:02:38.577Z,61.06
2022-08-25T09:05:10.846Z,60.92
2022-08-25T09:07:55.042Z,61.60
2022-08-25T09:10:48.845Z,60.21
2022-08-25T09:13:37.569Z,60.50
2022-08-25T09:16:41.768Z,58.37
2022-08-25T09:19:21.219Z,58.61
2022-08-25T09:22:35.220Z,58.18
2022-08-25T09:25:48.690Z,56.26
2022-08-25T09:28:29.058Z,57.27
2022-08-25T09:31:01.826Z,58.14
2022-08-25T09:33:35.530Z,59.17
2022-08-25T09:36:06.008Z,58.03
2022-08-25T09:38:35.383Z,57.79
2022-08-25T09:41:02.990Z,57.05
2022-08-25T09:43:41.805Z,57.19
2022-08-25T09:46:08.197Z,57.99
2022-08-25T09:48:48.416Z,56.21
2022-08-25T09:51:42.186Z,57.39
2022-08-25T09:54:12.517Z,57.21
2022-08-25T09:56:53.234Z,55.74
2022-08-25T09:59:35.691Z,55.76
2022-08-25T10:02:04.392Z,54.11
2022-08-25T10:04:40.094Z,50.71
2022-08-25T10:07:22.763Z,52.52
2022-08-25T10:09:55.869Z,52.31
2022-08-25T10:12:44.606Z,53.02
2022-08-25T10:15:29.589Z,54.61
2022-08-25T10:18:17.583Z,51.56
2022-08-25T10:20:44.755Z,49.14
2022-08-25T10:23:14.465Z,50.10
2022-08-25T10:25:59.484Z,50.30
2022-08-25T10:28:42.922Z,48.48
2022-08-25T10:31:22.172Z,50.63
2022-08-25T10:34:05.618Z,48.07
2022-08-25T10:36:41.326Z,46.51
2022-08-25T10:39:36.339Z,46.85
2022-08-25T10:42:25.816Z,45.96
2022-08-25T10:45:31.382Z,45.81
2022-08-25T10:48:23.349Z,44.74
2022-08-25T10:51:21.491Z,45.25
2022-08-25T10:54:00.090Z,46.20
2022-08-25T10:56:40.211Z,46.34
2022-08-25T10:59:19.685Z,46.48
2022-08-25T11:02:04.513Z,47.14
2022-08-25T11:04:59.691Z,48.33
2022-08-25T11:07:35.525Z,47.24
2022-08-25T11:10:27.817Z,46.11
2022-08-25T11:13:06.794Z,47.95
2022-08-25T11:16:13.678Z,45.60
2022-08-25T11:18:44.316Z,47.95
2022-08-25T11:21:22.142Z,48.13
2022-08-25T11:24:15.036Z,47.10
2022-08-25T11:26:49.638Z,45.93
2022-08-25T11:29:18.593Z,46.05
2022-08-25T11:31:53.638Z,47.13
2022-08-25T11:34:22.446Z,46.46
2022-08-25T11:36:57.998Z,45.97
2022-08-25T11:39:58.902Z,46.51
2022-08-25T11:42:35.781Z,46.61
2022-08-25T11:45:17.668Z,46.19
2022-08-25T11:48:05.846Z,44.46
2022-08-25T11:50:35.525Z,45.58
2022-08-25T11:53:26.814Z,44.41
2022-08-25T11:56:02.410Z,45.46
2022-08-25T11:58:43.854Z,46.19
2022-08-25T12:01:13.709Z,45.06
2022-08-25T12:03:42.859Z,44.38
2022-08-25T12:06:30.896Z,43.88
2022-08-25T12:09:00.030Z,44.66
2022-08-25T12:11:42.250Z,44.60
2022-08-25T12:14:36.641Z,44.92
2022-08-25T12:17:17.373Z,45.06
2022-08-25T12:19:43.814Z,44.01
2022-08-25T12:22:10.162Z,43.15
2022-08-25T12:24:48.246Z,43.21
2022-08-25T12:27:39.371Z,43.79
2022-08-25T12:30:20.937Z,44.79
2022-08-25T12:33:13.634Z,43.59
2022-08-25T12:35:57.751Z,43.05
2022-08-25T12:38:32.790Z,44.13
2022-08-25T12:41:12.119Z,43.76
2022-08-25T12:43:45.352Z,42.67
2022-08-25T12:46:21.050Z,42.72
2022-08-25T12:49:16.981Z,44.26
2022-08-25T12:51:53.798Z,43.75
2022-08-25T12:54:43.970Z,41.21
2022-08-25T12:57:25.058Z,43.91
2022-08-25T12:59:58.654Z,42.26
2022-08-25T13:02:52.677Z,41.37
2022-08-25T13:05:50.226Z,42.17
2022-08-25T13:08:22.663Z,42.04
2022-08-25T13:11:01.979Z,42.65
2022-08-25T13:13:58.838Z,41.84
2022-08-25T13:16:29.735Z,43.04
2022-08-25T13:18:59.426Z,42.39
2022-08-25T13:21:41.580Z,41.34
2022-08-25T13:24:21.211Z,41.03
2022-08-25T13:26:53.957Z,41.03
2022-08-25T13:29:36.945Z,42.02
2022-08-25T13:32:12.836Z,40.83
2022-08-25T13:34:42.556Z,40.10
2022-08-25T13:37:29.596Z,40.59
2022-08-25T13:40:11.049Z,41.09
2022-08-25T13:42:42.533Z,40.55
2022-08-25T13:45:15.054Z,40.88
2022-08-25T13:47:45.403Z,40.35
2022-08-25T13:50:30.619Z,41.77
2022-08-25T13:53:04.034Z,42.25
2022-08-25T13:55:50.961Z,41.18
2022-08-25T13:58:24.701Z,39.67
2022-08-25T14:01:22.696Z,40.45
2022-08-25T14:04:17.096Z,41.80
2022-08-25T14:06:44.083Z,39.78
2022-08-25T14:09:17.775Z,39.69
2022-08-25T14:11:56.501Z,39.43
2022-08-25T14:14:22.878Z,39.89
2022-08-25T14:16:54.147Z,37.90
2022-08-25T14:19:24.346Z,40.73
2022-08-25T14:21:56.840Z,39.99
2022-08-25T14:24:23.853Z,40.39
2022-08-25T14:26:53.846Z,40.31
2022-08-25T14:29:22.034Z,39.29
2022-08-25T14:31:49.057Z,38.87
2022-08-25T14:34:20.319Z,40.49
2022-08-25T14:36:48.342Z,40.95
2022-08-25T14:39:14.989Z,38.49
2022-08-25T14:41:45.340Z,36.95
2022-08-25T14:44:19.679Z,37.42
2022-08-25T14:46:51.757Z,35.37
2022-08-25T14:49:26.954Z,36.47
2022-08-25T14:51:53.896Z,35.68
2022-08-25T14:54:26.576Z,35.26
2022-08-25T14:56:53.899Z,37.39
2022-08-25T14:59:20.547Z,36.16
2022-08-25T15:01:47.150Z,35.68
2022-08-25T15:04:22.671Z,37.12
2022-08-25T15:06:57.397Z,36.59
2022-08-25T15:09:25.039Z,37.54
2022-08-25T15:11:59.753Z,38.52
2022-08-25T15:14:28.640Z,36.47
2022-08-25T15:16:59.427Z,36.96
2022-08-25T15:19:27.041Z,37.80
2022-08-25T15:21:54.534Z,35.48
2022-08-25T15:24:25.826Z,37.33
2022-08-25T15:26:55.562Z,36.79
2022-08-25T15:29:23.315Z,36.32
2022-08-25T15:31:50.818Z,35.49
2022-08-25T15:34:17.562Z,34.50
2022-08-25T15:36:45.277Z,36.29
2022-08-25T15:39:11.708Z,34.02
2022-08-25T15:41:38.500Z,35.92
2022-08-25T15:44:07.712Z,36.74
2022-08-25T15:46:35.889Z,34.74
2022-08-25T15:49:02.422Z,35.67
2022-08-25T15:51:29.359Z,35.61
2022-08-25T15:53:57.266Z,34.54
2022-08-25T15:56:26.789Z,35.67
2022-08-25T15:58:55.060Z,37.24
2022-08-25T16:01:27.054Z,36.47
2022-08-25T16:03:54.014Z,37.12
2022-08-25T16:06:20.889Z,38.19
2022-08-25T16:08:48.215Z,38.45
2022-08-25T16:11:18.570Z,37.21
2022-08-25T16:13:46.448Z,38.79
2022-08-25T16:16:16.250Z,37.56
2022-08-25T16:18:43.774Z,38.07
2022-08-25T16:21:12.507Z,35.79
2022-08-25T16:23:39.655Z,36.44
2022-08-25T16:26:11.218Z,36.17
2022-08-25T16:28:43.776Z,37.74
2022-08-25T16:31:13.313Z,40.49
2022-08-25T16:36:21.435Z,38.30
2022-08-25T16:38:49.584Z,38.56
2022-08-25T16:41:23.944Z,38.18
2022-08-25T16:43:51.121Z,37.93
2022-08-25T16:46:20.582Z,38.58
2022-08-25T16:48:47.451Z,38.81
2022-08-25T16:51:16.995Z,39.11
2022-08-25T16:54:04.583Z,39.54
2022-08-25T16:56:35.093Z,42.70
2022-08-25T16:59:02.853Z,40.73
2022-08-25T17:01:33.677Z,41.17
2022-08-25T17:04:00.133Z,40.91
2022-08-25T17:06:29.210Z,40.11
2022-08-25T17:08:56.319Z,40.28
2022-08-25T17:11:29.103Z,41.99
2022-08-25T17:14:01.347Z,48.48
2022-08-25T17:16:32.336Z,46.00
2022-08-25T17:19:06.647Z,45.75
2022-08-25T17:21:36.894Z,50.35
2022-08-25T17:24:04.846Z,52.08
2022-08-25T17:26:31.502Z,52.96
2022-08-25T17:29:00.798Z,54.15
2022-08-25T17:31:29.908Z,54.96
2022-08-25T17:33:57.261Z,54.25
2022-08-25T17:36:26.933Z,54.84
2022-08-25T17:38:54.917Z,55.08
2022-08-25T17:41:23.759Z,55.67
2022-08-25T17:43:50.217Z,57.02
2022-08-25T17:46:17.618Z,57.62
2022-08-25T17:48:44.839Z,59.10
2022-08-25T17:51:11.997Z,60.16
2022-08-25T17:53:38.726Z,60.26
2022-08-25T17:56:08.862Z,59.90
2022-08-25T17:58:36.428Z,59.97
2022-08-25T18:01:04.637Z,60.07
2022-08-25T18:03:32.447Z,60.74
2022-08-25T18:05:59.197Z,61.34
2022-08-25T18:08:32.182Z,61.49
2022-08-25T18:11:01.851Z,60.60
2022-08-25T18:13:28.454Z,56.87
2022-08-25T18:15:55.009Z,55.93
2022-08-25T18:18:21.409Z,55.29
2022-08-25T18:20:50.957Z,55.29
2022-08-25T18:23:19.483Z,57.17
2022-08-25T18:25:48.594Z,57.04
2022-08-25T18:28:15.262Z,58.29
2022-08-25T18:30:42.399Z,57.38
2022-08-25T18:33:09.041Z,57.84
2022-08-25T18:35:36.123Z,57.42
2022-08-25T18:38:24.101Z,56.04
2022-08-25T18:40:59.095Z,56.03
2022-08-25T18:43:26.336Z,58.18
2022-08-25T18:45:52.787Z,59.86
2022-08-25T18:48:23.575Z,60.01
2022-08-25T18:50:53.809Z,60.77
2022-08-25T18:53:30.621Z,61.52
2022-08-25T18:56:09.608Z,61.67
2022-08-25T18:58:36.119Z,61.91
2022-08-25T19:01:03.975Z,62.18
2022-08-25T19:03:31.154Z,64.13
2022-08-25T19:05:58.001Z,65.30
2022-08-25T19:08:24.769Z,66.06
2022-08-25T19:10:52.803Z,65.66
2022-08-25T19:13:22.752Z,66.13
2022-08-25T19:15:51.354Z,66.68
2022-08-25T19:18:18.852Z,66.30
2022-08-25T19:20:52.500Z,66.48
2022-08-25T19:23:19.401Z,67.10
2022-08-25T19:25:45.843Z,67.55
2022-08-25T19:28:13.753Z,67.80
2022-08-25T19:30:50.183Z,66.80
2022-08-25T19:33:41.964Z,65.74
2022-08-25T19:36:08.456Z,67.47
2022-08-25T19:38:36.664Z,68.90
2022-08-25T19:41:13.966Z,68.62
2022-08-25T19:43:50.472Z,68.95
2022-08-25T19:46:23.367Z,69.30
2022-08-25T19:48:49.888Z,68.36
2022-08-25T19:51:19.410Z,68.61
2022-08-25T19:53:53.633Z,69.17
2022-08-25T19:56:21.546Z,69.77
2022-08-25T19:58:47.970Z,69.63
2022-08-25T20:01:18.151Z,69.78
2022-08-25T20:03:45.090Z,69.48
2022-08-25T20:06:12.009Z,70.18
2022-08-25T20:08:42.430Z,70.17
2022-08-25T20:11:08.845Z,70.61
2022-08-25T20:13:35.273Z,71.38
2022-08-25T20:16:02.223Z,70.86
2022-08-25T20:18:28.675Z,70.92
2022-08-25T20:20:55.221Z,70.41
2022-08-25T20:23:42.137Z,69.94
2022-08-25T20:26:09.209Z,70.41
2022-08-25T20:28:35.717Z,71.31
2022-08-25T20:31:02.181Z,71.29
2022-08-25T20:33:28.948Z,71.69
2022-08-25T20:35:56.999Z,72.36
2022-08-25T20:38:24.990Z,72.60
2022-08-25T20:40:52.525Z,72.45
2022-08-25T20:43:19.077Z,72.79
2022-08-25T20:45:47.724Z,73.48
2022-08-25T20:48:14.259Z,72.21
2022-08-25T20:50:40.769Z,73.14
2022-08-25T20:53:10.185Z,73.45
2022-08-25T20:55:43.706Z,73.52
2022-08-25T20:58:10.714Z,74.21
2022-08-25T21:00:37.154Z,74.26
2022-08-25T21:03:03.925Z,74.29
2022-08-25T21:05:30.338Z,75.08
2022-08-25T21:07:58.129Z,74.70
2022-08-25T21:10:24.544Z,74.89
2022-08-25T21:12:53.403Z,75.24
2022-08-25T21:15:20.183Z,74.67
2022-08-25T21:17:54.679Z,73.77
2022-08-25T21:20:24.979Z,73.79
2022-08-25T21:22:52.253Z,74.12
2022-08-25T21:25:20.429Z,73.19
2022-08-25T21:27:47.987Z,74.83
2022-08-25T21:30:15.701Z,74.56
2022-08-25T21:32:53.039Z,74.30
2022-08-25T21:35:20.599Z,73.33
2022-08-25T21:37:49.228Z,74.79
2022-08-25T21:40:22.602Z,75.42
2022-08-25T21:42:49.450Z,74.63
2022-08-25T21:45:16.306Z,74.94
2022-08-25T21:47:47.525Z,75.40
2022-08-25T21:50:13.994Z,75.35
2022-08-25T21:52:41.254Z,76.08
2022-08-25T21:55:16.038Z,75.93
2022-08-25T21:57:43.316Z,76.30
2022-08-25T22:00:13.003Z,75.32
2022-08-25T22:02:39.448Z,75.92
2022-08-25T22:05:09.415Z,75.31
2022-08-25T22:07:40.433Z,75.13
2022-08-25T22:10:09.438Z,74.94
2022-08-25T22:12:43.707Z,74.21
2022-08-25T22:15:13.562Z,75.60
2022-08-25T22:17:40.452Z,76.09
2022-08-25T22:20:07.997Z,76.91
2022-08-25T22:22:34.392Z,77.53
2022-08-25T22:25:01.173Z,77.39
2022-08-25T22:27:28.417Z,77.68
2022-08-25T22:29:55.984Z,77.22
2022-08-25T22:32:22.853Z,77.79
2022-08-25T22:34:49.392Z,77.10
2022-08-25T22:37:17.838Z,76.99
2022-08-25T22:39:48.118Z,77.29
2022-08-25T22:42:15.025Z,77.08
2022-08-25T22:44:42.484Z,77.33
2022-08-25T22:47:12.414Z,75.41
2022-08-25T22:49:39.781Z,75.04
2022-08-25T22:52:07.434Z,75.48
2022-08-25T22:54:36.650Z,76.38
2022-08-25T22:57:06.648Z,76.71
2022-08-25T22:59:33.929Z,77.01
2022-08-25T23:02:00.552Z,77.50
2022-08-25T23:04:27.060Z,78.47
2022-08-25T23:06:53.508Z,77.81
2022-08-25T23:09:20.924Z,79.43
2022-08-25T23:11:47.788Z,79.05
2022-08-25T23:14:18.181Z,79.57
2022-08-25T23:16:44.761Z,78.43
2022-08-25T23:19:13.996Z,78.80
2022-08-25T23:21:59.350Z,78.94
2022-08-25T23:24:29.527Z,79.85
2022-08-25T23:27:00.647Z,79.72
2022-08-25T23:29:28.043Z,79.81
2022-08-25T23:31:54.993Z,79.11
2022-08-25T23:34:21.795Z,79.81
2022-08-25T23:36:48.668Z,79.78
2022-08-25T23:39:15.069Z,80.44
2022-08-25T23:41:41.667Z,80.77
2022-08-25T23:44:09.379Z,80.74
2022-08-25T23:46:39.382Z,79.77
2022-08-25T23:49:08.434Z,80.23
2022-08-25T23:51:38.138Z,79.67
2022-08-25T23:54:09.322Z,79.08
2022-08-25T23:56:36.525Z,79.13
2022-08-25T23:59:09.670Z,80.07
